Time;durP1;ratioP1;P1;durP2;ratioP2;P2;SDS_P1;SDS_P2;PMS_P1;PMS_P2;Temp;Humidity;BMP_temperature;BMP_pressure;BME280_temperature;BME280_humidity;BME280_pressure;Samples;Min_cycle;Max_cycle;Signal;HPM_P1;HPM_P2
2023/11/05 00:00:29;;;;;;;10.63;1.73;;;;;;;;;;5045090;28;20032;-79
2023/11/05 00:02:55;;;;;;;13.75;2.10;;;;;;;;;;5068951;28;20037;-79
2023/11/05 00:05:22;;;;;;;18.02;1.90;;;;;;;;;;5060694;28;20041;-79
2023/11/05 00:07:49;;;;;;;17.08;1.80;;;;;;;;;;5044598;28;20072;-79
2023/11/05 00:10:15;;;;;;;16.10;2.28;;;;;;;;;;5058698;28;20098;-80
2023/11/05 00:12:42;;;;;;;20.63;1.98;;;;;;;;;;5030059;28;20041;-78
2023/11/05 00:15:09;;;;;;;20.83;2.30;;;;;;;;;;5042619;28;20119;-79
2023/11/05 00:17:36;;;;;;;16.45;3.15;;;;;;;;;;5043621;28;20048;-79
2023/11/05 00:20:07;;;;;;;20.25;2.97;;;;;;;;;;5044842;28;20375;-78
2023/11/05 00:22:34;;;;;;;31.33;3.30;;;;;;;;;;5025847;28;20379;-79
2023/11/05 00:25:01;;;;;;;19.23;2.33;;;;;;;;;;5043217;28;20044;-79
2023/11/05 00:27:28;;;;;;;24.42;2.80;;;;;;;;;;5040956;28;20040;-79
2023/11/05 00:29:57;;;;;;;24.08;3.15;;;;;;;;;;5042888;28;20056;-80
2023/11/05 00:32:23;;;;;;;18.67;2.75;;;;;;;;;;5043566;28;20041;-79
2023/11/05 00:34:50;;;;;;;20.98;2.65;;;;;;;;;;5060329;28;20064;-79
2023/11/05 00:37:17;;;;;;;17.05;3.20;;;;;;;;;;5043165;28;20048;-79
2023/11/05 00:39:44;;;;;;;11.75;1.83;;;;;;;;;;5061938;28;20094;-79
2023/11/05 00:42:11;;;;;;;18.48;2.45;;;;;;;;;;5059659;28;20400;-79
2023/11/05 00:44:37;;;;;;;21.70;2.72;;;;;;;;;;5043615;28;20063;-79
2023/11/05 00:47:04;;;;;;;17.30;2.55;;;;;;;;;;5043830;28;20056;-76
2023/11/05 00:49:31;;;;;;;15.82;2.50;;;;;;;;;;5060149;28;20045;-79
2023/11/05 00:51:58;;;;;;;17.25;3.03;;;;;;;;;;5043720;28;20375;-78
2023/11/05 00:54:28;;;;;;;21.25;2.45;;;;;;;;;;5044570;28;20040;-79
2023/11/05 00:56:55;;;;;;;23.85;2.95;;;;;;;;;;5060514;28;20041;-78
2023/11/05 00:59:22;;;;;;;19.15;3.08;;;;;;;;;;5059944;28;20044;-79
2023/11/05 01:01:48;;;;;;;18.13;2.35;;;;;;;;;;5044296;28;20043;-79
2023/11/05 01:04:15;;;;;;;14.30;2.38;;;;;;;;;;5060034;28;20051;-79
2023/11/05 01:06:42;;;;;;;16.33;2.53;;;;;;;;;;5060704;28;20044;-78
2023/11/05 01:09:09;;;;;;;22.27;2.67;;;;;;;;;;5043826;28;20040;-80
2023/11/05 01:11:36;;;;;;;19.88;2.72;;;;;;;;;;5042782;28;20064;-78
2023/11/05 01:14:03;;;;;;;20.45;2.60;;;;;;;;;;5042882;28;20037;-79
2023/11/05 01:16:30;;;;;;;19.95;2.40;;;;;;;;;;5044065;28;20466;-79
2023/11/05 01:18:57;;;;;;;17.33;1.98;;;;;;;;;;5039447;28;20041;-78
2023/11/05 01:21:24;;;;;;;18.92;2.78;;;;;;;;;;5061111;28;20072;-78
2023/11/05 01:23:51;;;;;;;13.48;1.88;;;;;;;;;;5044489;28;20411;-79
2023/11/05 01:26:18;;;;;;;10.40;2.13;;;;;;;;;;5042825;28;20048;-79
2023/11/05 01:28:45;;;;;;;20.92;2.95;;;;;;;;;;5061567;28;20051;-79
2023/11/05 01:31:11;;;;;;;20.85;3.53;;;;;;;;;;5059294;28;20037;-78
2023/11/05 01:33:38;;;;;;;17.13;2.72;;;;;;;;;;5061190;28;20059;-78
2023/11/05 01:36:06;;;;;;;18.48;2.80;;;;;;;;;;5061192;28;20044;-79
2023/11/05 01:38:32;;;;;;;20.42;3.50;;;;;;;;;;5040574;28;20425;-79
2023/11/05 01:40:59;;;;;;;20.73;2.70;;;;;;;;;;5024240;28;20464;-79
2023/11/05 01:43:26;;;;;;;15.75;2.42;;;;;;;;;;5048678;28;20045;-79
2023/11/05 01:45:53;;;;;;;20.27;2.60;;;;;;;;;;5050286;28;20364;-78
2023/11/05 01:48:20;;;;;;;18.27;3.53;;;;;;;;;;5036102;28;20415;-79
2023/11/05 01:50:47;;;;;;;15.02;2.90;;;;;;;;;;5034640;28;20045;-78
2023/11/05 01:53:14;;;;;;;23.13;3.05;;;;;;;;;;5050096;28;20541;-79
2023/11/05 01:55:41;;;;;;;20.67;2.90;;;;;;;;;;5050610;28;20041;-79
2023/11/05 01:58:08;;;;;;;19.70;2.88;;;;;;;;;;5035692;28;20069;-78
2023/11/05 02:00:35;;;;;;;23.83;3.95;;;;;;;;;;5068775;28;20041;-79
2023/11/05 02:03:03;;;;;;;23.60;3.60;;;;;;;;;;5054261;28;20044;-78
2023/11/05 02:05:31;;;;;;;14.95;3.03;;;;;;;;;;5043944;28;20453;-79
2023/11/05 02:07:58;;;;;;;19.98;2.30;;;;;;;;;;5063367;28;20533;-79
2023/11/05 02:10:24;;;;;;;16.05;2.10;;;;;;;;;;5063076;28;20059;-78
2023/11/05 02:13:09;;;;;;;13.75;1.88;;;;;;;;;;5064809;28;20378;-80
2023/11/05 02:15:36;;;;;;;13.82;2.22;;;;;;;;;;5045039;28;20037;-79
2023/11/05 02:18:03;;;;;;;20.98;2.83;;;;;;;;;;5045818;28;20033;-79
2023/11/05 02:20:30;;;;;;;26.38;2.85;;;;;;;;;;5064381;28;20056;-79
2023/11/05 02:22:58;;;;;;;25.77;4.13;;;;;;;;;;5064813;28;20037;-79
2023/11/05 02:25:25;;;;;;;20.25;3.97;;;;;;;;;;5045354;28;20048;-78
2023/11/05 02:27:52;;;;;;;21.33;3.40;;;;;;;;;;5044829;28;20041;-80
2023/11/05 02:30:22;;;;;;;25.77;4.38;;;;;;;;;;5045790;28;20486;-79
2023/11/05 02:32:49;;;;;;;30.60;4.20;;;;;;;;;;5064771;28;20041;-80
2023/11/05 02:35:17;;;;;;;21.77;4.35;;;;;;;;;;5062090;28;20090;-79
2023/11/05 02:37:44;;;;;;;12.27;2.08;;;;;;;;;;5063559;28;20048;-77
2023/11/05 02:40:11;;;;;;;14.82;2.47;;;;;;;;;;5061610;28;20715;-79
2023/11/05 02:42:38;;;;;;;22.13;2.83;;;;;;;;;;5046380;28;20138;-79
2023/11/05 02:45:05;;;;;;;13.85;3.10;;;;;;;;;;5063342;28;20501;-78
2023/11/05 02:47:32;;;;;;;18.00;2.95;;;;;;;;;;5069797;28;20048;-80
2023/11/05 02:49:59;;;;;;;26.92;3.22;;;;;;;;;;5073484;28;20142;-78
2023/11/05 02:52:25;;;;;;;27.70;3.78;;;;;;;;;;5054987;28;20051;-78
2023/11/05 02:54:52;;;;;;;22.50;4.22;;;;;;;;;;5056025;28;20036;-79
2023/11/05 02:57:20;;;;;;;40.38;5.15;;;;;;;;;;5055694;28;20040;-79
2023/11/05 02:59:49;;;;;;;15.65;3.58;;;;;;;;;;5038787;28;20501;-80
2023/11/05 03:02:16;;;;;;;29.03;3.77;;;;;;;;;;5071541;28;20044;-79
2023/11/05 03:04:42;;;;;;;25.70;4.13;;;;;;;;;;5071731;28;20286;-79
2023/11/05 03:07:12;;;;;;;30.67;4.82;;;;;;;;;;5070933;28;20041;-80
2023/11/05 03:09:39;;;;;;;27.08;4.22;;;;;;;;;;5053607;28;20490;-80
2023/11/05 03:12:07;;;;;;;34.35;4.50;;;;;;;;;;5053632;28;20086;-79
2023/11/05 03:14:33;;;;;;;27.88;5.22;;;;;;;;;;5071711;28;20120;-80
2023/11/05 03:17:00;;;;;;;23.27;3.78;;;;;;;;;;5054659;28;20041;-78
2023/11/05 03:19:27;;;;;;;29.55;3.83;;;;;;;;;;5072847;28;20104;-79
2023/11/05 03:21:54;;;;;;;20.70;3.70;;;;;;;;;;5055466;28;20040;-79
2023/11/05 03:24:21;;;;;;;29.40;4.13;;;;;;;;;;5072625;28;20048;-79
2023/11/05 03:26:48;;;;;;;22.83;3.58;;;;;;;;;;5054683;28;20090;-78
2023/11/05 03:29:15;;;;;;;23.17;3.78;;;;;;;;;;5054824;28;20119;-79
2023/11/05 03:31:42;;;;;;;21.35;3.53;;;;;;;;;;5055461;28;20051;-78
2023/11/05 03:34:09;;;;;;;19.58;3.72;;;;;;;;;;5054672;28;20045;-78
